Time;durP1;ratioP1;P1;durP2;ratioP2;P2;SDS_P1;SDS_P2;PMS_P1;PMS_P2;Temp;Humidity;BMP_temperature;BMP_pressure;BME280_temperature;BME280_humidity;BME280_pressure;Samples;Min_cycle;Max_cycle;Signal;HPM_P1;HPM_P2
2022/12/22 03:27:48;;;;;;;0.40;0.40;;;8.40;99.90;;;;;;5000529;28;20438;-80
2022/12/22 03:30:20;;;;;;;0.30;0.30;;;8.40;99.90;;;;;;5047811;28;20428;-80
2022/12/22 03:32:47;;;;;;;0.10;0.10;;;8.40;99.90;;;;;;5053808;28;20519;-80
2022/12/22 03:35:13;;;;;;;0.25;0.25;;;8.40;99.90;;;;;;5050750;28;20945;-79
2022/12/22 03:37:40;;;;;;;0.10;0.10;;;8.40;99.90;;;;;;5031798;28;20972;-79
2022/12/22 03:40:08;;;;;;;0.10;0.10;;;8.40;99.90;;;;;;5031745;28;20922;-79
2022/12/22 03:48:07;;;;;;;0.20;0.20;;;8.40;99.90;;;;;;5052722;28;20911;-79
2022/12/22 03:50:34;;;;;;;0.53;0.30;;;8.40;99.90;;;;;;5048171;28;20432;-79
2022/12/22 03:53:04;;;;;;;0.13;0.13;;;8.40;99.90;;;;;;5052502;28;20472;-80
2022/12/22 03:55:31;;;;;;;0.20;0.20;;;8.40;99.90;;;;;;5044316;28;20520;-80
2022/12/22 03:57:58;;;;;;;0.20;0.20;;;8.40;99.90;;;;;;5048703;28;20507;-80
2022/12/22 04:00:24;;;;;;;0.40;0.40;;;8.40;99.90;;;;;;5052493;28;21160;-80
2022/12/22 04:02:52;;;;;;;0.20;0.20;;;8.40;99.90;;;;;;5048154;28;20438;-80
2022/12/22 04:05:19;;;;;;;0.10;0.10;;;8.40;99.90;;;;;;5028724;28;20437;-80
2022/12/22 04:07:45;;;;;;;0.13;0.13;;;8.50;99.90;;;;;;5052750;28;20916;-79
2022/12/22 04:13:01;;;;;;;0.13;0.13;;;8.50;99.90;;;;;;5045143;28;20867;-79
2022/12/22 04:15:31;;;;;;;0.37;0.23;;;8.40;99.90;;;;;;5051757;28;20425;-80
2022/12/22 04:17:58;;;;;;;0.20;0.20;;;8.40;99.90;;;;;;5044103;28;20457;-79
2022/12/22 04:20:26;;;;;;;1.50;0.50;;;8.40;99.90;;;;;;5051844;28;20523;-81
2022/12/22 04:22:57;;;;;;;0.20;0.20;;;8.40;99.90;;;;;;5051182;28;20520;-80
2022/12/22 04:25:24;;;;;;;0.50;0.50;;;8.40;99.90;;;;;;5043404;28;20435;-81
2022/12/22 04:27:52;;;;;;;0.28;0.28;;;8.40;99.90;;;;;;5047014;28;21076;-80
2022/12/22 04:30:21;;;;;;;0.80;0.80;;;8.40;99.90;;;;;;5055338;28;20440;-81
2022/12/22 04:32:50;;;;;;;0.30;0.30;;;8.50;99.90;;;;;;5049447;28;20464;-81
2022/12/22 04:35:17;;;;;;;0.20;0.20;;;8.50;99.90;;;;;;5034038;28;20508;-82
2022/12/22 04:37:43;;;;;;;0.10;0.10;;;8.50;99.90;;;;;;5046867;28;20862;-81
2022/12/22 04:40:13;;;;;;;0.30;0.22;;;8.60;99.90;;;;;;5052025;28;20429;-81
2022/12/22 04:42:40;;;;;;;0.20;0.20;;;8.70;99.90;;;;;;5033793;28;20508;-81
2022/12/22 04:45:07;;;;;;;0.00;0.00;;;8.80;99.90;;;;;;5059144;28;20444;-81
2022/12/22 04:47:33;;;;;;;0.45;0.38;;;8.80;99.90;;;;;;5050590;28;21032;-82
2022/12/22 04:50:00;;;;;;;0.20;0.20;;;8.80;99.90;;;;;;5034376;28;20428;-83
2022/12/22 04:52:27;;;;;;;0.10;0.10;;;8.80;99.90;;;;;;5051680;28;20429;-80
2022/12/22 04:54:54;;;;;;;0.30;0.27;;;8.80;99.90;;;;;;5051843;28;20464;-81
2022/12/22 04:57:20;;;;;;;0.30;0.20;;;8.80;99.90;;;;;;5047978;28;21151;-82
2022/12/22 04:59:47;;;;;;;0.22;0.22;;;8.80;99.90;;;;;;5044799;28;20441;-81
2022/12/22 05:02:16;;;;;;;0.30;0.20;;;8.80;99.90;;;;;;5045633;28;20464;-80
2022/12/22 05:04:43;;;;;;;0.30;0.20;;;8.80;99.90;;;;;;5046113;28;20429;-80
2022/12/22 05:07:10;;;;;;;0.30;0.30;;;8.80;99.90;;;;;;5050164;28;20429;-80
2022/12/22 05:09:39;;;;;;;0.32;0.32;;;8.80;99.90;;;;;;5042604;28;20465;-80
2022/12/22 05:12:53;;;;;;;0.20;0.20;;;8.80;99.90;;;;;;5051522;28;20439;-81
2022/12/22 05:14:55;;;;;;;0.15;0.15;;;8.80;99.90;;;;;;5055162;28;20429;-80
2022/12/22 05:17:24;;;;;;;0.10;0.10;;;8.80;99.90;;;;;;5046133;28;20530;-81
2022/12/22 05:19:51;;;;;;;0.20;0.20;;;8.80;99.90;;;;;;5072071;28;20425;-81
2022/12/22 05:22:18;;;;;;;0.03;0.03;;;8.80;99.90;;;;;;5056175;28;20433;-82
2022/12/22 05:24:46;;;;;;;0.22;0.17;;;8.80;99.90;;;;;;5069565;28;20401;-82
2022/12/22 05:27:16;;;;;;;0.10;0.10;;;8.80;99.90;;;;;;5068333;28;20437;-82
2022/12/22 05:29:43;;;;;;;0.30;0.20;;;8.80;99.90;;;;;;5051358;28;20429;-82
2022/12/22 05:32:11;;;;;;;0.10;0.10;;;8.80;99.90;;;;;;5077175;28;20472;-82
2022/12/22 05:34:50;;;;;;;;;;;;;;;;;;;;;
2022/12/22 05:37:17;;;;;;;0.15;0.15;;;8.90;99.90;;;;;;5051726;28;20405;-82
2022/12/22 05:39:44;;;;;;;0.50;0.50;;;8.90;99.90;;;;;;5055850;28;20484;-82
2022/12/22 05:42:11;;;;;;;1.00;0.15;;;8.90;99.90;;;;;;5051567;28;20429;-82
2022/12/22 05:44:38;;;;;;;0.00;0.00;;;9.00;99.90;;;;;;5048775;28;20520;-81
2022/12/22 05:47:06;;;;;;;0.30;0.30;;;9.00;99.90;;;;;;5048101;28;20427;-82
2022/12/22 05:49:33;;;;;;;0.10;0.10;;;9.00;99.90;;;;;;5044798;28;20956;-82
2022/12/22 05:52:00;;;;;;;0.10;0.10;;;9.00;99.90;;;;;;5051648;28;20425;-82
2022/12/22 05:54:26;;;;;;;0.25;0.10;;;9.00;99.90;;;;;;5054309;28;20429;-82
2022/12/22 05:56:53;;;;;;;0.80;0.20;;;8.90;99.90;;;;;;5054871;28;20437;-81
2022/12/22 05:59:23;;;;;;;0.10;0.10;;;9.00;99.90;;;;;;5038642;28;20518;-81
2022/12/22 06:01:52;;;;;;;0.10;0.10;;;9.00;99.90;;;;;;5050286;28;20516;-81
2022/12/22 06:04:19;;;;;;;0.60;0.15;;;9.00;99.90;;;;;;5040444;28;20785;-81
2022/12/22 06:06:46;;;;;;;0.10;0.10;;;9.10;99.90;;;;;;5053433;28;20432;-81
2022/12/22 06:09:13;;;;;;;0.30;0.10;;;9.10;99.90;;;;;;5042502;28;20437;-81
2022/12/22 06:11:39;;;;;;;0.10;0.10;;;9.10;99.90;;;;;;5047456;28;20442;-80
2022/12/22 06:14:06;;;;;;;0.10;0.10;;;9.10;99.90;;;;;;5045049;28;20990;-80
2022/12/22 06:16:33;;;;;;;0.05;0.05;;;9.10;99.90;;;;;;5066528;28;20465;-81
2022/12/22 06:19:00;;;;;;;0.35;0.28;;;9.10;99.90;;;;;;5046157;28;20435;-80
2022/12/22 06:21:27;;;;;;;0.17;0.17;;;9.10;99.90;;;;;;5053072;28;20476;-79
2022/12/22 06:23:54;;;;;;;0.67;0.20;;;9.10;99.90;;;;;;5072870;28;20438;-81
2022/12/22 06:26:21;;;;;;;0.10;0.10;;;9.10;99.90;;;;;;5057745;28;20511;-81
2022/12/22 06:28:47;;;;;;;0.10;0.10;;;9.20;99.90;;;;;;5039565;28;21017;-80
2022/12/22 06:31:14;;;;;;;0.10;0.10;;;9.20;99.90;;;;;;5042578;28;20520;-79
2022/12/22 06:33:50;;;;;;;0.50;0.20;;;9.20;99.90;;;;;;5046331;28;20426;-79
2022/12/22 06:36:17;;;;;;;0.10;0.10;;;9.20;99.90;;;;;;5059380;28;20428;-78
2022/12/22 06:38:44;;;;;;;0.00;0.00;;;9.20;99.90;;;;;;5055733;28;20439;-78
2022/12/22 06:41:11;;;;;;;0.30;0.30;;;9.10;99.90;;;;;;5041929;28;20853;-79
2022/12/22 06:43:41;;;;;;;0.13;0.07;;;9.10;99.90;;;;;;5043855;28;21012;-78
2022/12/22 06:46:07;;;;;;;0.10;0.10;;;9.20;99.90;;;;;;5050705;28;20943;-79
2022/12/22 06:48:42;;;;;;;0.05;0.05;;;9.20;99.90;;;;;;5029897;28;20472;-78
2022/12/22 06:51:09;;;;;;;0.30;0.30;;;9.20;99.90;;;;;;5040623;28;20495;-78
2022/12/22 06:53:36;;;;;;;0.05;0.05;;;9.30;99.90;;;;;;5043178;28;20434;-78
2022/12/22 06:56:02;;;;;;;0.20;0.20;;;9.30;99.90;;;;;;5050072;28;20433;-77
2022/12/22 06:58:29;;;;;;;0.10;0.10;;;9.30;99.90;;;;;;5029801;28;20439;-77
2022/12/22 07:00:56;;;;;;;0.10;0.10;;;9.30;99.90;;;;;;5046651;28;20437;-77
2022/12/22 07:03:23;;;;;;;0.03;0.03;;;9.40;99.90;;;;;;5041276;28;20439;-78
2022/12/22 07:05:52;;;;;;;0.00;0.00;;;9.40;99.90;;;;;;5047497;28;20434;-78
2022/12/22 07:08:19;;;;;;;0.00;0.00;;;9.50;99.90;;;;;;5051500;28;20425;-78
2022/12/22 07:10:58;;;;;;;2.17;0.08;;;9.60;99.90;;;;;;5042977;28;20431;-78
2022/12/22 07:13:33;;;;;;;0.25;0.13;;;9.70;99.90;;;;;;5045463;28;20520;-77
2022/12/22 07:16:01;;;;;;;2.40;0.40;;;9.90;99.90;;;;;;5042640;28;20449;-77
2022/12/22 07:18:33;;;;;;;0.00;0.00;;;9.90;99.90;;;;;;5044589;28;20495;-77
2022/12/22 07:21:02;;;;;;;0.10;0.10;;;9.90;99.90;;;;;;5042775;28;20432;-77
2022/12/22 07:23:29;;;;;;;0.10;0.10;;;9.90;99.90;;;;;;5042363;28;20488;-77
2022/12/22 07:25:56;;;;;;;0.10;0.10;;;9.90;99.90;;;;;;5044139;28;20485;-77
2022/12/22 07:28:23;;;;;;;0.00;0.00;;;9.90;99.90;;;;;;5040909;28;20425;-78
2022/12/22 07:30:51;;;;;;;0.10;0.10;;;9.80;99.90;;;;;;5054605;28;20506;-77
2022/12/22 07:33:18;;;;;;;0.10;0.10;;;9.80;99.90;;;;;;5026841;28;20519;-77
2022/12/22 07:35:46;;;;;;;0.10;0.10;;;9.80;99.90;;;;;;5039525;28;20435;-78
2022/12/22 07:38:12;;;;;;;0.00;0.00;;;9.80;99.90;;;;;;5037882;28;20940;-78
2022/12/22 07:40:45;;;;;;;0.20;0.20;;;9.80;99.90;;;;;;5047819;28;20473;-77
2022/12/22 07:43:17;;;;;;;0.20;0.20;;;9.80;99.90;;;;;;5041763;28;20514;-78
2022/12/22 07:45:44;;;;;;;0.20;0.10;;;9.70;99.90;;;;;;5042137;28;20442;-77
2022/12/22 07:51:02;;;;;;;0.90;0.30;;;9.60;99.90;;;;;;5036795;28;21360;-77
2022/12/22 07:53:33;;;;;;;0.00;0.00;;;9.50;99.90;;;;;;5041488;28;20444;-76
2022/12/22 07:56:04;;;;;;;0.20;0.20;;;9.50;99.90;;;;;;5047786;28;20447;-76
2022/12/22 07:58:33;;;;;;;0.30;0.30;;;9.50;99.90;;;;;;5056123;28;20465;-76
2022/12/22 08:01:00;;;;;;;0.10;0.10;;;9.50;99.90;;;;;;5034894;28;20489;-76
2022/12/22 08:03:26;;;;;;;0.05;0.05;;;9.60;99.90;;;;;;5046733;28;20978;-78
2022/12/22 08:05:54;;;;;;;0.10;0.10;;;9.60;99.90;;;;;;5041353;28;20940;-80
2022/12/22 08:08:20;;;;;;;0.03;0.03;;;9.60;99.90;;;;;;5040742;28;20523;-79
2022/12/22 08:10:47;;;;;;;0.00;0.00;;;9.70;99.90;;;;;;5058423;28;20451;-78
2022/12/22 08:13:14;;;;;;;0.00;0.00;;;9.90;99.90;;;;;;5037413;28;21001;-79
2022/12/22 08:15:41;;;;;;;0.10;0.10;;;9.90;99.90;;;;;;5048409;28;20420;-79
2022/12/22 08:18:08;;;;;;;0.10;0.10;;;10.00;99.90;;;;;;5047783;28;20440;-78
2022/12/22 08:20:34;;;;;;;0.20;0.20;;;10.00;99.90;;;;;;5051704;28;20437;-78
2022/12/22 08:23:01;;;;;;;0.10;0.10;;;10.10;99.90;;;;;;5059474;28;20500;-78
2022/12/22 08:25:32;;;;;;;0.10;0.10;;;10.10;99.90;;;;;;5032474;28;20500;-79
2022/12/22 08:28:00;;;;;;;1.30;0.30;;;10.00;99.90;;;;;;5043127;28;20436;-79
2022/12/22 08:30:27;;;;;;;1.70;0.20;;;10.00;99.90;;;;;;5025720;28;20429;-78
2022/12/22 08:32:53;;;;;;;0.15;0.15;;;10.00;99.90;;;;;;5055913;28;20428;-78
2022/12/22 08:35:21;;;;;;;0.70;0.70;;;10.00;99.90;;;;;;5046597;28;20441;-78
2022/12/22 08:37:49;;;;;;;0.10;0.10;;;10.00;99.90;;;;;;5045583;28;20439;-79
2022/12/22 08:40:32;;;;;;;0.10;0.10;;;10.00;99.90;;;;;;5043568;28;20433;-78
2022/12/22 08:43:03;;;;;;;4.30;0.25;;;10.00;99.90;;;;;;5047928;28;20516;-77
2022/12/22 08:45:31;;;;;;;1.10;0.22;;;10.00;99.90;;;;;;5036939;28;20425;-79
2022/12/22 08:47:57;;;;;;;0.10;0.10;;;10.10;99.90;;;;;;5039806;28;20438;-78
2022/12/22 08:50:24;;;;;;;0.20;0.20;;;10.10;99.90;;;;;;5040933;28;20482;-78
2022/12/22 08:52:51;;;;;;;0.50;0.10;;;10.20;99.90;;;;;;5034592;28;20440;-77
2022/12/22 08:55:18;;;;;;;0.20;0.10;;;10.10;99.90;;;;;;5042771;28;20436;-78
2022/12/22 08:57:48;;;;;;;0.10;0.10;;;10.20;99.90;;;;;;5050026;28;20434;-78
2022/12/22 09:00:22;;;;;;;0.33;0.13;;;10.20;99.90;;;;;;5039489;28;20763;-78
2022/12/22 09:02:49;;;;;;;1.90;0.20;;;10.30;99.90;;;;;;5049560;28;20489;-78
2022/12/22 09:05:16;;;;;;;0.10;0.10;;;10.30;99.90;;;;;;5042362;28;20440;-78
2022/12/22 09:07:44;;;;;;;0.65;0.38;;;10.30;99.90;;;;;;5041467;28;20474;-78
2022/12/22 09:10:11;;;;;;;0.13;0.13;;;10.30;99.90;;;;;;5060726;28;20431;-78
2022/12/22 09:12:38;;;;;;;1.90;0.10;;;10.30;99.90;;;;;;5049649;28;20431;-78
2022/12/22 09:15:07;;;;;;;0.10;0.10;;;10.30;99.90;;;;;;5041374;28;20431;-77
2022/12/22 09:17:35;;;;;;;0.20;0.20;;;10.30;99.90;;;;;;5021980;28;21044;-77
2022/12/22 09:20:04;;;;;;;0.20;0.20;;;10.30;99.90;;;;;;5048899;28;20427;-77
2022/12/22 09:22:30;;;;;;;0.13;0.13;;;10.30;99.90;;;;;;5036989;28;20529;-77
2022/12/22 09:24:57;;;;;;;0.40;0.30;;;10.40;99.90;;;;;;5060680;28;20427;-77
2022/12/22 09:27:33;;;;;;;0.15;0.15;;;10.40;99.90;;;;;;5027215;28;20992;-76
2022/12/22 09:30:00;;;;;;;2.40;0.20;;;10.40;99.90;;;;;;5050960;28;20425;-78
2022/12/22 09:32:27;;;;;;;0.40;0.40;;;10.40;99.90;;;;;;5041237;28;20421;-76
2022/12/22 09:34:54;;;;;;;0.90;0.40;;;10.40;99.90;;;;;;5050978;28;20852;-77
2022/12/22 09:37:20;;;;;;;0.30;0.30;;;10.40;99.90;;;;;;5046970;28;20431;-75
2022/12/22 09:39:47;;;;;;;0.23;0.23;;;10.40;99.90;;;;;;5029078;28;20440;-75
2022/12/22 09:42:20;;;;;;;0.10;0.10;;;10.50;99.90;;;;;;5048759;28;21054;-75
2022/12/22 09:44:50;;;;;;;0.20;0.20;;;10.40;99.90;;;;;;5049697;28;20434;-75
2022/12/22 09:47:37;;;;;;;1.20;0.20;;;10.40;99.90;;;;;;5039758;28;20430;-75
2022/12/22 09:50:07;;;;;;;2.70;0.10;;;10.40;99.90;;;;;;5045686;28;20437;-76
2022/12/22 09:52:34;;;;;;;0.50;0.20;;;10.40;99.90;;;;;;5042776;28;20507;-76
2022/12/22 09:55:22;;;;;;;0.40;0.40;;;10.30;99.90;;;;;;5024547;28;20446;-76
2022/12/22 09:57:50;;;;;;;0.10;0.10;;;10.30;99.90;;;;;;5052671;28;20442;-76
2022/12/22 10:00:21;;;;;;;1.50;0.60;;;10.20;99.90;;;;;;5037418;28;20438;-78
2022/12/22 10:03:09;;;;;;;0.22;0.22;;;10.20;99.90;;;;;;5047483;28;20518;-78
2022/12/22 10:05:44;;;;;;;0.60;0.40;;;10.20;99.90;;;;;;5042372;28;20429;-83
2022/12/22 10:08:20;;;;;;;1.17;0.20;;;10.20;99.90;;;;;;5021924;28;20439;-77
2022/12/22 10:10:53;;;;;;;0.20;0.20;;;10.30;99.90;;;;;;5044178;28;20969;-76
2022/12/22 10:13:20;;;;;;;0.20;0.20;;;10.50;99.90;;;;;;5040590;28;20437;-77
2022/12/22 10:15:48;;;;;;;0.10;0.10;;;10.60;99.90;;;;;;5043407;28;20456;-77
2022/12/22 10:18:17;;;;;;;0.20;0.20;;;10.80;99.90;;;;;;5040524;28;20437;-77
2022/12/22 10:21:00;;;;;;;0.90;0.40;;;10.90;99.90;;;;;;5043762;28;20434;-77
2022/12/22 10:23:28;;;;;;;0.33;0.23;;;11.00;99.90;;;;;;5036510;28;20455;-76
2022/12/22 10:25:55;;;;;;;0.20;0.20;;;10.90;99.90;;;;;;5045091;28;20486;-77
2022/12/22 10:28:49;;;;;;;0.70;0.35;;;10.80;99.90;;;;;;5044107;28;20413;-79
2022/12/22 10:31:26;;;;;;;0.15;0.15;;;10.50;99.90;;;;;;5026719;28;20442;-76
2022/12/22 10:33:55;;;;;;;6.50;0.38;;;10.30;99.90;;;;;;5036490;28;20427;-78
2022/12/22 10:36:25;;;;;;;0.08;0.08;;;10.10;99.90;;;;;;5037514;28;20437;-78
2022/12/22 10:39:06;;;;;;;0.20;0.20;;;10.00;99.90;;;;;;5037469;28;20801;-79
2022/12/22 10:41:43;;;;;;;0.90;0.20;;;9.90;99.90;;;;;;5026207;28;20439;-78
2022/12/22 10:44:26;;;;;;;1.90;0.25;;;9.80;99.90;;;;;;5044624;28;20470;-79
2022/12/22 10:46:56;;;;;;;0.13;0.13;;;9.90;99.90;;;;;;5040068;28;20431;-81
2022/12/22 10:49:33;;;;;;;1.40;0.10;;;9.90;99.90;;;;;;5040823;28;20470;-80
2022/12/22 10:52:11;;;;;;;0.10;0.10;;;10.00;99.90;;;;;;5036751;28;20444;-80
2022/12/22 10:54:42;;;;;;;0.57;0.10;;;10.20;99.90;;;;;;5052855;28;20434;-79
2022/12/22 10:57:12;;;;;;;0.05;0.05;;;10.20;99.90;;;;;;5032988;28;20435;-79
2022/12/22 10:59:54;;;;;;;0.20;0.20;;;10.30;99.90;;;;;;5047725;28;20576;-80
2022/12/22 11:02:29;;;;;;;0.10;0.10;;;10.30;99.90;;;;;;5016911;28;20489;-80
2022/12/22 11:05:04;;;;;;;0.20;0.15;;;10.30;99.90;;;;;;5059072;28;20429;-78
2022/12/22 11:07:37;;;;;;;0.10;0.10;;;10.30;99.90;;;;;;5019341;28;20434;-78
2022/12/22 11:10:13;;;;;;;1.20;0.10;;;10.30;99.90;;;;;;5043226;28;20832;-77
2022/12/22 11:13:10;;;;;;;0.10;0.10;;;10.40;99.90;;;;;;5047288;28;20460;-78
2022/12/22 11:15:48;;;;;;;0.00;0.00;;;10.50;99.90;;;;;;5050742;28;20434;-77
2022/12/22 11:18:33;;;;;;;0.10;0.10;;;10.50;99.90;;;;;;5054965;28;20436;-76
2022/12/22 11:21:07;;;;;;;0.00;0.00;;;10.60;99.90;;;;;;5050926;28;20442;-76
2022/12/22 11:23:50;;;;;;;0.30;0.30;;;10.70;99.90;;;;;;5047003;28;20434;-77
2022/12/22 11:26:39;;;;;;;0.00;0.00;;;10.70;99.90;;;;;;5038060;28;20504;-76
2022/12/22 11:29:26;;;;;;;0.17;0.15;;;10.70;99.90;;;;;;5060959;28;20444;-76
2022/12/22 11:32:37;;;;;;;0.00;0.00;;;10.70;99.90;;;;;;5045739;28;20441;-76
2022/12/22 11:35:24;;;;;;;0.25;0.10;;;10.80;99.90;;;;;;5033610;28;20443;-77
2022/12/22 11:38:14;;;;;;;0.10;0.10;;;10.80;99.90;;;;;;5052027;28;20452;-77
2022/12/22 11:40:45;;;;;;;0.10;0.10;;;10.70;99.90;;;;;;5049387;28;20441;-78
2022/12/22 11:43:39;;;;;;;0.05;0.05;;;10.70;99.90;;;;;;5051640;28;20437;-76
2022/12/22 11:46:45;;;;;;;0.10;0.10;;;10.60;99.90;;;;;;5045988;28;20442;-77
2022/12/22 11:49:17;;;;;;;0.10;0.10;;;10.60;99.90;;;;;;4995837;28;20456;-76
2022/12/22 11:52:06;;;;;;;0.10;0.10;;;10.40;99.90;;;;;;4991459;28;20821;-78
2022/12/22 11:54:52;;;;;;;0.10;0.10;;;10.30;99.90;;;;;;4989898;28;20481;-77
2022/12/22 11:57:33;;;;;;;0.10;0.10;;;10.20;99.90;;;;;;4992725;28;20976;-76
2022/12/22 12:00:12;;;;;;;0.10;0.10;;;10.10;99.90;;;;;;4999844;28;20432;-76
2022/12/22 12:03:13;;;;;;;0.20;0.10;;;10.00;99.90;;;;;;4987943;28;20865;-76
2022/12/22 12:05:48;;;;;;;0.10;0.10;;;10.00;99.90;;;;;;4942437;28;20470;-79
2022/12/22 12:08:56;;;;;;;0.15;0.08;;;10.00;99.90;;;;;;4981144;28;20448;-76
2022/12/22 12:11:26;;;;;;;0.10;0.10;;;10.10;99.90;;;;;;4989379;28;20435;-76
2022/12/22 12:14:24;;;;;;;0.00;0.00;;;10.10;99.90;;;;;;4997206;28;20427;-77
2022/12/22 12:16:58;;;;;;;0.10;0.10;;;10.20;99.90;;;;;;4990095;28;20449;-79
2022/12/22 12:19:25;;;;;;;0.08;0.08;;;10.40;99.90;;;;;;4994805;28;20441;-78
2022/12/22 12:21:57;;;;;;;0.10;0.10;;;10.50;99.90;;;;;;4997253;28;20459;-78
2022/12/22 12:24:46;;;;;;;0.13;0.13;;;10.60;99.90;;;;;;5007639;28;20437;-77
2022/12/22 12:27:39;;;;;;;0.10;0.10;;;10.60;99.90;;;;;;5045253;28;20472;-78
2022/12/22 12:30:07;;;;;;;0.30;0.20;;;10.60;99.90;;;;;;5053885;28;20847;-78
2022/12/22 12:33:18;;;;;;;0.90;0.10;;;10.50;99.90;;;;;;5050184;28;20434;-78
2022/12/22 12:36:05;;;;;;;0.20;0.10;;;10.20;99.90;;;;;;5026480;28;20426;-79
2022/12/22 12:39:07;;;;;;;0.00;0.00;;;10.10;99.90;;;;;;5031827;28;20567;-78
2022/12/22 12:41:58;;;;;;;0.10;0.10;;;10.00;99.90;;;;;;5045054;28;20449;-77
2022/12/22 12:44:30;;;;;;;0.03;0.03;;;10.10;99.90;;;;;;5035428;28;20518;-76
2022/12/22 12:47:03;;;;;;;0.00;0.00;;;10.00;99.90;;;;;;5046574;28;20501;-76
2022/12/22 12:49:33;;;;;;;0.00;0.00;;;9.90;99.90;;;;;;5035717;28;20435;-77
2022/12/22 12:52:11;;;;;;;0.10;0.10;;;9.90;99.90;;;;;;5045833;28;20429;-76
2022/12/22 12:54:38;;;;;;;0.20;0.10;;;9.80;99.90;;;;;;5062464;28;20485;-76
2022/12/22 12:57:21;;;;;;;0.10;0.10;;;9.80;99.90;;;;;;5039300;28;20442;-76
2022/12/22 12:59:58;;;;;;;0.10;0.10;;;9.80;99.90;;;;;;5027606;28;20513;-77
2022/12/22 13:02:31;;;;;;;0.00;0.00;;;9.80;99.90;;;;;;5048502;28;20515;-78
2022/12/22 13:05:14;;;;;;;0.05;0.05;;;9.80;99.90;;;;;;5042033;28;20889;-76
2022/12/22 13:08:19;;;;;;;0.10;0.10;;;9.80;99.90;;;;;;5056471;28;20485;-76
2022/12/22 13:11:13;;;;;;;0.00;0.00;;;9.80;99.90;;;;;;5053025;28;20433;-77
2022/12/22 13:14:00;;;;;;;0.00;0.00;;;9.80;99.90;;;;;;5030246;28;20413;-78
2022/12/22 13:16:32;;;;;;;0.10;0.10;;;9.80;99.90;;;;;;5042183;28;20432;-78
2022/12/22 13:19:04;;;;;;;0.10;0.10;;;9.80;99.90;;;;;;5042731;28;20613;-79
2022/12/22 13:21:49;;;;;;;0.00;0.00;;;9.80;99.90;;;;;;5046193;28;20555;-77
2022/12/22 13:24:24;;;;;;;0.10;0.10;;;9.90;99.90;;;;;;5050462;28;20495;-79
2022/12/22 13:26:54;;;;;;;0.08;0.08;;;9.90;99.90;;;;;;5053134;28;20423;-79
2022/12/22 13:29:21;;;;;;;0.13;0.13;;;9.90;99.90;;;;;;5053315;28;20437;-78
2022/12/22 13:32:11;;;;;;;0.10;0.10;;;9.90;99.90;;;;;;5047881;28;20426;-80
2022/12/22 13:34:45;;;;;;;0.10;0.10;;;9.90;99.90;;;;;;5035948;28;21151;-78
2022/12/22 13:37:43;;;;;;;0.00;0.00;;;9.80;99.90;;;;;;5043706;28;20791;-78
2022/12/22 13:40:22;;;;;;;0.10;0.10;;;9.70;99.90;;;;;;5044912;28;20526;-77
2022/12/22 13:42:51;;;;;;;0.00;0.00;;;9.60;99.90;;;;;;5051122;28;20860;-77
2022/12/22 13:45:24;;;;;;;0.00;0.00;;;9.50;99.90;;;;;;5054874;28;20867;-77
2022/12/22 13:47:54;;;;;;;0.10;0.10;;;9.40;99.90;;;;;;5051535;28;20437;-77
2022/12/22 13:50:29;;;;;;;0.10;0.10;;;9.40;99.90;;;;;;5029620;28;20440;-76
2022/12/22 13:52:57;;;;;;;0.10;0.10;;;9.30;99.90;;;;;;5055710;28;22023;-77
2022/12/22 13:55:27;;;;;;;0.30;0.20;;;9.20;99.90;;;;;;5032619;28;20760;-77
2022/12/22 13:57:58;;;;;;;0.00;0.00;;;9.20;99.90;;;;;;5040557;28;20449;-77
2022/12/22 14:00:27;;;;;;;0.10;0.10;;;9.20;99.90;;;;;;5048876;28;20430;-77
2022/12/22 14:02:53;;;;;;;0.03;0.03;;;9.20;99.90;;;;;;5045583;28;20441;-76
2022/12/22 14:05:21;;;;;;;0.00;0.00;;;9.20;99.90;;;;;;5039205;28;20804;-77
2022/12/22 14:08:03;;;;;;;0.70;0.10;;;9.30;99.90;;;;;;5038795;28;20783;-78
2022/12/22 14:10:37;;;;;;;1.00;0.10;;;9.30;99.90;;;;;;5051155;28;20429;-77
2022/12/22 14:13:10;;;;;;;0.00;0.00;;;9.30;99.90;;;;;;5056197;28;20463;-78
2022/12/22 14:15:36;;;;;;;0.10;0.10;;;9.30;99.90;;;;;;5048735;28;20436;-78
2022/12/22 14:18:15;;;;;;;0.10;0.10;;;9.30;99.90;;;;;;5033813;28;20424;-77
2022/12/22 14:20:45;;;;;;;0.10;0.10;;;9.30;99.90;;;;;;5055621;28;20438;-77
2022/12/22 14:23:20;;;;;;;0.10;0.10;;;9.30;99.90;;;;;;5048435;28;20430;-78
2022/12/22 14:25:52;;;;;;;0.10;0.10;;;9.30;99.90;;;;;;5057904;28;20435;-78
2022/12/22 14:28:28;;;;;;;0.30;0.30;;;9.30;99.90;;;;;;5035202;28;20471;-79
2022/12/22 14:31:00;;;;;;;0.17;0.17;;;9.30;99.90;;;;;;5057080;28;20439;-78
2022/12/22 14:34:06;;;;;;;0.10;0.10;;;9.20;99.90;;;;;;5043106;28;20525;-78
2022/12/22 14:36:44;;;;;;;0.20;0.20;;;9.20;99.90;;;;;;5052258;28;20435;-79
2022/12/22 14:39:24;;;;;;;0.10;0.10;;;9.20;99.90;;;;;;5045658;28;20465;-79
2022/12/22 14:42:17;;;;;;;0.20;0.20;;;9.20;99.90;;;;;;5050024;28;20697;-80
2022/12/22 14:44:50;;;;;;;0.10;0.10;;;9.10;99.90;;;;;;5055201;28;20431;-79
2022/12/22 14:47:28;;;;;;;0.20;0.20;;;9.20;99.90;;;;;;5050465;28;20493;-79
2022/12/22 14:50:00;;;;;;;0.10;0.10;;;9.20;99.90;;;;;;5048868;28;20451;-79
2022/12/22 14:53:00;;;;;;;0.10;0.10;;;9.20;99.90;;;;;;5050644;28;20425;-79
2022/12/22 14:55:37;;;;;;;0.10;0.10;;;9.20;99.90;;;;;;4984269;28;20474;-79
2022/12/22 14:58:12;;;;;;;0.20;0.20;;;9.20;99.90;;;;;;4991533;28;20936;-81
2022/12/22 15:00:44;;;;;;;0.20;0.20;;;9.20;99.90;;;;;;4986747;28;20442;-80
2022/12/22 15:03:31;;;;;;;0.20;0.20;;;9.20;99.90;;;;;;4974695;28;21024;-79
2022/12/22 15:06:26;;;;;;;0.13;0.13;;;9.10;99.90;;;;;;4991221;28;20481;-80
2022/12/22 15:09:14;;;;;;;0.10;0.10;;;9.10;99.90;;;;;;4986894;28;20506;-79
2022/12/22 15:11:45;;;;;;;0.20;0.20;;;9.20;99.90;;;;;;4985890;28;20430;-80
2022/12/22 15:14:18;;;;;;;0.20;0.20;;;9.10;99.90;;;;;;4989808;28;20818;-80
2022/12/22 15:16:46;;;;;;;0.10;0.10;;;9.10;99.90;;;;;;4993453;28;20498;-79
2022/12/22 15:19:15;;;;;;;0.20;0.20;;;9.00;99.90;;;;;;4987232;28;20434;-79
2022/12/22 15:21:42;;;;;;;0.20;0.20;;;9.00;99.90;;;;;;4988782;28;20434;-80
2022/12/22 15:24:14;;;;;;;0.10;0.10;;;8.90;99.90;;;;;;4973966;28;20430;-79
2022/12/22 15:26:42;;;;;;;0.77;0.28;;;8.80;99.90;;;;;;4987056;28;20445;-80
2022/12/22 15:29:08;;;;;;;0.20;0.20;;;8.80;99.90;;;;;;4987556;28;20532;-80
2022/12/22 15:31:37;;;;;;;0.70;0.30;;;8.70;99.90;;;;;;5008666;28;20425;-80
2022/12/22 15:34:15;;;;;;;0.20;0.10;;;8.60;99.90;;;;;;5037546;28;20423;-80
2022/12/22 15:36:42;;;;;;;0.20;0.20;;;8.60;99.90;;;;;;5048514;28;20435;-80
2022/12/22 15:39:13;;;;;;;0.10;0.10;;;8.50;99.90;;;;;;5051337;28;20429;-80
2022/12/22 15:41:40;;;;;;;0.25;0.20;;;8.50;99.90;;;;;;5050042;28;20507;-79
2022/12/22 15:44:07;;;;;;;0.50;0.50;;;8.40;99.90;;;;;;5043835;28;20435;-79
2022/12/22 15:46:35;;;;;;;0.10;0.10;;;8.40;99.90;;;;;;5057861;28;20500;-80
2022/12/22 15:49:05;;;;;;;0.13;0.13;;;8.40;99.90;;;;;;5053290;28;20441;-79
2022/12/22 15:51:39;;;;;;;0.20;0.20;;;8.30;99.90;;;;;;5038135;28;20429;-79
2022/12/22 15:54:12;;;;;;;0.20;0.20;;;8.30;99.90;;;;;;5045368;28;20497;-79
2022/12/22 15:56:40;;;;;;;0.10;0.10;;;8.30;99.90;;;;;;5041522;28;20476;-79
2022/12/22 15:59:25;;;;;;;0.20;0.20;;;8.30;99.90;;;;;;5035873;28;20510;-80
2022/12/22 16:01:53;;;;;;;0.10;0.10;;;8.30;99.90;;;;;;5045642;28;20438;-80
2022/12/22 16:04:27;;;;;;;0.10;0.10;;;8.40;99.90;;;;;;5046147;28;20435;-80
2022/12/22 16:06:55;;;;;;;0.20;0.20;;;8.40;99.90;;;;;;5046503;28;20472;-80
2022/12/22 16:09:27;;;;;;;0.20;0.20;;;8.50;99.90;;;;;;5050276;28;20429;-80
2022/12/22 16:11:55;;;;;;;0.30;0.20;;;8.40;99.90;;;;;;5046818;28;20433;-80
2022/12/22 16:14:23;;;;;;;0.20;0.20;;;8.40;99.90;;;;;;5048043;28;20491;-81
2022/12/22 16:16:49;;;;;;;0.25;0.15;;;8.40;99.90;;;;;;5040465;28;20436;-80
2022/12/22 16:19:17;;;;;;;0.10;0.10;;;8.40;99.90;;;;;;5043787;28;20486;-80
2022/12/22 16:21:47;;;;;;;0.10;0.10;;;8.50;99.90;;;;;;5042972;28;20438;-80
2022/12/22 16:24:32;;;;;;;0.10;0.10;;;8.50;99.90;;;;;;5052133;28;20518;-80
2022/12/22 16:27:01;;;;;;;0.20;0.20;;;8.40;99.90;;;;;;5046896;28;20812;-80
2022/12/22 16:29:28;;;;;;;0.25;0.25;;;8.50;99.90;;;;;;5050975;28;20508;-80
2022/12/22 16:32:21;;;;;;;0.10;0.10;;;8.50;99.90;;;;;;5052114;28;21235;-81
2022/12/22 16:34:48;;;;;;;0.20;0.20;;;8.50;99.90;;;;;;5044366;28;20427;-82
2022/12/22 16:37:15;;;;;;;0.50;0.30;;;8.40;99.90;;;;;;5048732;28;20434;-82
2022/12/22 16:39:43;;;;;;;0.20;0.20;;;8.40;99.90;;;;;;5049629;28;20425;-82
2022/12/22 16:42:15;;;;;;;0.10;0.10;;;8.40;99.90;;;;;;5053008;28;20444;-82
2022/12/22 16:44:59;;;;;;;0.32;0.32;;;8.40;99.90;;;;;;5041809;28;20505;-81
2022/12/22 16:47:32;;;;;;;0.30;0.20;;;8.40;99.90;;;;;;5049623;28;20915;-81
2022/12/22 16:50:02;;;;;;;0.20;0.20;;;8.30;99.90;;;;;;5047319;28;20439;-81
2022/12/22 16:52:40;;;;;;;0.20;0.20;;;8.30;99.90;;;;;;5043918;28;20846;-80
2022/12/22 16:55:16;;;;;;;0.20;0.20;;;8.30;99.90;;;;;;5043294;28;20470;-81
2022/12/22 16:57:43;;;;;;;0.10;0.10;;;8.20;99.90;;;;;;5047319;28;21008;-81
2022/12/22 17:00:27;;;;;;;0.20;0.20;;;8.20;99.90;;;;;;5049709;28;20468;-81
2022/12/22 17:03:04;;;;;;;0.10;0.10;;;8.20;99.90;;;;;;5045798;28;20442;-81